Woodford, Wisconsin
Current Conditions -  °F | °C
As of 4:55 AM on Sunday 23 Nov 2014 (Local Time) from KEFT Reporting Station
Haze Haze  
Wind Chill: 42°   Ceiling: 300
Heat Index: 48°   Visibility: 2mi
Dew Point: 48°   Wind: 18mph
Humidity: 100%   Direction: 190°S
Pressure: 29.66"   Gusts: 25mph
Location:  42.65°N, 89.86°W
Report Text: KEFT 231055Z AUTO 19016G22KT 2SM BR OVC003 09/09 A2966 RMK AO2
Loading
Personal Weather Stations






























Interactive Weather Map New forecast layout! Learn more

10-Day Weather Forecast

Advertisements
Track Severe Weather on mobile